Time;durP1;ratioP1;P1;durP2;ratioP2;P2;SDS_P1;SDS_P2;PMS_P1;PMS_P2;Temp;Humidity;BMP_temperature;BMP_pressure;BME280_temperature;BME280_humidity;BME280_pressure;Samples;Min_cycle;Max_cycle;Signal;HPM_P1;HPM_P2
2023/08/14 00:04:18;;;;;;;8.00;5.80;;;;;;;15.91;100.00;100154.05;105015;1276;61260;-75
2023/08/14 00:06:45;;;;;;;10.50;5.50;;;;;;;15.89;100.00;100160.34;105273;1272;74497;-74
2023/08/14 00:09:11;;;;;;;6.40;5.10;;;;;;;15.87;100.00;100164.13;104881;1273;71095;-74
2023/08/14 00:11:38;;;;;;;8.40;5.20;;;;;;;15.86;100.00;100161.52;105649;1273;72825;-74
2023/08/14 00:14:05;;;;;;;7.50;5.40;;;;;;;15.85;100.00;100162.84;104769;1273;61319;-75
2023/08/14 00:16:31;;;;;;;6.70;5.00;;;;;;;15.83;100.00;100165.22;104457;1277;60411;-73
2023/08/14 00:18:58;;;;;;;7.90;5.50;;;;;;;15.81;100.00;100158.58;104410;1276;74640;-75
2023/08/14 00:21:25;;;;;;;6.30;4.90;;;;;;;15.78;100.00;100159.63;104869;1276;69953;-75
2023/08/14 00:23:52;;;;;;;5.80;4.60;;;;;;;15.76;100.00;100160.20;105955;1273;72486;-74
2023/08/14 00:26:18;;;;;;;6.10;4.50;;;;;;;15.75;100.00;100162.52;105281;1273;61307;-74
2023/08/14 00:28:45;;;;;;;5.70;4.70;;;;;;;15.74;100.00;100161.01;104794;1273;61190;-74
2023/08/14 00:31:12;;;;;;;6.40;5.30;;;;;;;15.74;100.00;100164.90;104771;1273;74668;-74
2023/08/14 00:33:39;;;;;;;7.30;5.20;;;;;;;15.73;100.00;100163.16;104515;1273;71059;-74
2023/08/14 00:36:06;;;;;;;10.10;4.60;;;;;;;15.71;100.00;100165.00;105426;1276;72723;-74
2023/08/14 00:38:33;;;;;;;8.60;5.10;;;;;;;15.69;100.00;100157.31;105514;1273;61348;-74
2023/08/14 00:41:01;;;;;;;6.50;4.30;;;;;;;15.67;100.00;100160.93;104446;1273;61470;-74
2023/08/14 00:43:28;;;;;;;6.50;4.30;;;;;;;15.66;100.00;100162.05;104798;1273;73384;-74
2023/08/14 00:45:56;;;;;;;5.40;4.60;;;;;;;15.65;100.00;100159.66;104738;1273;71027;-75
2023/08/14 01:30:07;;;;;;;4.90;4.40;;;;;;;15.45;100.00;100170.09;95309;1269;977744;31
2023/08/14 01:32:35;;;;;;;5.30;4.20;;;;;;;15.45;100.00;100166.72;105107;1267;74358;-73
2023/08/14 01:35:02;;;;;;;5.20;4.30;;;;;;;15.44;100.00;100165.69;106030;1267;71028;-73
2023/08/14 01:37:34;;;;;;;5.70;4.00;;;;;;;15.43;100.00;100167.66;103511;1267;1003746;-72
2023/08/14 01:40:10;;;;;;;7.40;4.20;;;;;;;15.41;100.00;100171.11;104987;1268;61284;-73
2023/08/14 01:42:37;;;;;;;4.10;3.70;;;;;;;15.40;100.00;100170.46;104788;1267;61422;-73
2023/08/14 01:45:13;;;;;;;4.00;3.70;;;;;;;15.37;100.00;100165.63;104973;1271;73528;-73
2023/08/14 01:47:41;;;;;;;5.00;3.70;;;;;;;15.34;100.00;100168.78;106119;1267;71037;-74
2023/08/14 01:50:08;;;;;;;5.20;4.00;;;;;;;15.31;100.00;100172.80;105424;1268;72578;-74
2023/08/14 01:52:35;;;;;;;4.30;3.90;;;;;;;15.29;100.00;100176.08;105360;1267;61909;-74
2023/08/14 01:55:02;;;;;;;9.10;3.90;;;;;;;15.28;100.00;100179.15;105322;1268;61244;-73
2023/08/14 01:57:30;;;;;;;6.30;4.50;;;;;;;15.24;100.00;100178.05;104974;1268;74595;-74
2023/08/14 01:59:57;;;;;;;6.90;4.10;;;;;;;15.19;100.00;100177.73;104961;1267;71090;-74
2023/08/14 02:02:23;;;;;;;5.50;4.20;;;;;;;15.16;100.00;100174.70;106149;1267;72497;-74
2023/08/14 02:04:50;;;;;;;7.20;4.40;;;;;;;15.13;100.00;100177.63;104923;1267;61995;-74
2023/08/14 02:07:21;;;;;;;6.00;4.40;;;;;;;15.12;100.00;100181.40;104933;1271;61475;-73
2023/08/14 02:09:48;;;;;;;5.60;4.00;;;;;;;15.09;100.00;100185.93;106150;1267;74776;-74
2023/08/14 02:40:16;;;;;;;6.60;4.00;;;;;;;15.05;100.00;100206.58;104516;1271;61288;-75
2023/08/14 02:42:43;;;;;;;7.50;4.10;;;;;;;15.04;100.00;100208.23;105604;1267;73767;-75
2023/08/14 02:45:10;;;;;;;6.80;5.00;;;;;;;15.03;100.00;100210.57;104934;1271;61269;-75
2023/08/14 02:47:38;;;;;;;4.60;3.90;;;;;;;15.03;100.00;100211.48;104998;1267;72476;-74
2023/08/14 02:50:05;;;;;;;6.20;4.20;;;;;;;15.01;100.00;100213.50;105072;1267;61293;-74
2023/08/14 02:52:32;;;;;;;4.90;4.10;;;;;;;14.99;100.00;100212.34;105919;1271;61342;-73
2023/08/14 02:54:59;;;;;;;7.60;4.40;;;;;;;14.97;100.00;100217.34;105015;1271;73562;-74
2023/08/14 02:57:26;;;;;;;6.70;4.20;;;;;;;14.97;100.00;100221.08;104990;1267;71278;-73
2023/08/14 02:59:52;;;;;;;6.80;4.40;;;;;;;14.98;100.00;100225.82;105710;1267;71845;-74
2023/08/14 03:02:19;;;;;;;9.90;4.80;;;;;;;14.97;100.00;100226.00;105574;1270;61353;-74
2023/08/14 03:04:46;;;;;;;4.40;3.80;;;;;;;14.98;100.00;100228.48;105398;1267;61204;-75
2023/08/14 03:07:13;;;;;;;13.10;4.20;;;;;;;14.98;100.00;100226.16;104965;1270;74475;-75
2023/08/14 03:09:40;;;;;;;5.80;4.50;;;;;;;14.99;100.00;100230.02;104902;1267;71194;-74
2023/08/14 03:12:07;;;;;;;7.30;4.20;;;;;;;14.99;100.00;100228.56;104994;1273;72589;-74
2023/08/14 03:14:34;;;;;;;5.30;4.10;;;;;;;15.02;100.00;100228.45;105016;1278;61356;-74
2023/08/14 03:17:01;;;;;;;7.60;4.60;;;;;;;15.03;100.00;100228.23;105324;1267;61283;-74
2023/08/14 03:19:28;;;;;;;6.10;4.10;;;;;;;15.06;100.00;100227.23;105239;1267;74542;-73
2023/08/14 03:21:54;;;;;;;6.00;4.90;;;;;;;15.09;100.00;100227.46;105028;1267;71079;-73
2023/08/14 03:24:21;;;;;;;7.40;4.60;;;;;;;15.12;100.00;100228.73;104943;1267;1003709;-74
2023/08/14 03:26:48;;;;;;;9.20;4.70;;;;;;;15.18;100.00;100229.92;106097;1267;62154;-75
2023/08/14 03:29:16;;;;;;;7.50;4.70;;;;;;;15.22;100.00;100233.08;105235;1267;61472;-74
2023/08/14 03:31:43;;;;;;;5.40;4.30;;;;;;;15.28;100.00;100229.84;105136;1267;74189;-74
2023/08/14 03:34:10;;;;;;;6.80;4.80;;;;;;;15.35;100.00;100233.96;105076;1267;70967;-73
2023/08/14 03:36:38;;;;;;;8.80;4.50;;;;;;;15.42;100.00;100233.31;105379;1269;72548;-74
2023/08/14 03:39:04;;;;;;;11.20;4.90;;;;;;;15.49;100.00;100234.61;105326;1271;61692;-74
2023/08/14 03:41:31;;;;;;;8.10;4.80;;;;;;;15.55;100.00;100232.77;105808;1267;61280;-74
2023/08/14 03:44:00;;;;;;;8.30;4.70;;;;;;;15.62;100.00;100230.15;105021;1271;74515;-73
2023/08/14 03:46:27;;;;;;;7.80;4.80;;;;;;;15.69;100.00;100229.15;104955;1268;70925;-74
2023/08/14 03:48:54;;;;;;;8.60;5.00;;;;;;;15.75;100.00;100228.16;105332;1268;71570;-74
2023/08/14 03:51:20;;;;;;;7.50;4.70;;;;;;;15.83;100.00;100229.60;104938;1266;61306;-74
2023/08/14 03:53:47;;;;;;;4.90;4.30;;;;;;;15.90;100.00;100232.10;106077;1267;60167;-74
2023/08/14 03:56:13;;;;;;;10.00;4.20;;;;;;;15.97;100.00;100234.26;105003;1267;74383;-74
2023/08/14 03:58:40;;;;;;;7.20;4.30;;;;;;;16.04;100.00;100232.89;105381;1267;70812;-74
2023/08/14 04:01:07;;;;;;;7.00;4.30;;;;;;;16.12;100.00;100234.46;105340;1267;71711;-75
2023/08/14 04:03:34;;;;;;;5.50;3.90;;;;;;;16.20;100.00;100233.23;105013;1267;61381;-75
2023/08/14 04:06:00;;;;;;;9.70;3.90;;;;;;;16.28;100.00;100231.43;104950;1267;61374;-74
2023/08/14 04:08:27;;;;;;;8.30;4.00;;;;;;;16.35;100.00;100232.52;104979;1271;74557;-74
2023/08/14 04:10:55;;;;;;;10.40;3.70;;;;;;;16.41;100.00;100235.42;104940;1267;61479;-75
2023/08/14 04:13:22;;;;;;;7.80;4.60;;;;;;;16.48;100.00;100239.16;105021;1267;72493;-75
2023/08/14 04:15:49;;;;;;;6.60;4.70;;;;;;;16.57;100.00;100241.26;105766;1268;61781;-74
2023/08/14 04:18:16;;;;;;;11.00;4.00;;;;;;;16.65;100.00;100240.46;105808;1267;61291;-74
2023/08/14 04:20:43;;;;;;;9.20;3.80;;;;;;;16.73;100.00;100238.33;104995;1270;74570;-75
2023/08/14 04:23:09;;;;;;;15.80;4.90;;;;;;;16.81;100.00;100236.55;104966;1267;71111;-73
2023/08/14 04:25:36;;;;;;;14.10;4.60;;;;;;;16.88;100.00;100238.33;104945;1272;72506;-75
2023/08/14 04:28:05;;;;;;;7.30;4.30;;;;;;;16.96;100.00;100242.91;105686;1267;61359;-74
2023/08/14 04:30:32;;;;;;;12.00;4.60;;;;;;;17.03;100.00;100239.19;105030;1267;61482;-74
2023/08/14 04:32:59;;;;;;;8.70;4.00;;;;;;;17.13;100.00;100239.80;104882;1267;74720;-75
2023/08/14 04:35:26;;;;;;;8.60;3.90;;;;;;;17.20;100.00;100241.70;104918;1267;71079;-74
2023/08/14 04:37:57;;;;;;;8.60;4.00;;;;;;;17.28;100.00;100242.20;104904;1271;72560;-74
2023/08/14 04:40:25;;;;;;;6.30;4.30;;;;;;;17.38;100.00;100242.41;106197;1267;61298;-74
2023/08/14 04:42:51;;;;;;;7.80;4.30;;;;;;;17.48;100.00;100245.44;104961;1267;61142;-74
2023/08/14 04:45:18;;;;;;;6.90;4.10;;;;;;;17.57;100.00;100243.21;105084;1267;74427;-74
2023/08/14 04:47:45;;;;;;;9.90;4.20;;;;;;;17.66;100.00;100240.60;105058;1272;69786;-74
2023/08/14 04:50:12;;;;;;;10.80;4.00;;;;;;;17.74;100.00;100238.39;105379;1269;72526;-75
2023/08/14 04:52:39;;;;;;;8.30;3.90;;;;;;;17.84;100.00;100238.61;105851;1272;61338;-73
2023/08/14 04:55:06;;;;;;;13.10;3.90;;;;;;;17.94;100.00;100240.59;105144;1273;61275;-75
2023/08/14 04:57:34;;;;;;;9.80;4.10;;;;;;;18.05;100.00;100242.45;105091;1267;73351;-74
2023/08/14 05:00:04;;;;;;;8.40;3.80;;;;;;;18.19;100.00;100241.17;106051;1267;71186;-74
2023/08/14 05:02:32;;;;;;;5.70;3.50;;;;;;;18.32;100.00;100241.36;105046;1267;72706;-74
2023/08/14 05:04:59;;;;;;;8.60;3.60;;;;;;;18.42;100.00;100240.47;105003;1268;61366;-73
2023/08/14 05:07:26;;;;;;;5.10;3.70;;;;;;;18.53;100.00;100245.89;106063;1268;61414;-74
2023/08/14 05:09:54;;;;;;;8.60;3.70;;;;;;;18.64;100.00;100247.08;105453;1272;74549;-75
2023/08/14 05:12:21;;;;;;;10.40;3.70;;;;;;;18.76;100.00;100242.83;104933;1267;70407;-74
2023/08/14 05:14:47;;;;;;;8.90;3.50;;;;;;;18.86;100.00;100238.55;105436;1267;72862;-75
2023/08/14 05:17:14;;;;;;;4.00;3.10;;;;;;;18.95;100.00;100237.86;105685;1267;61357;-74
2023/08/14 05:19:41;;;;;;;8.10;3.10;;;;;;;19.04;100.00;100233.05;105344;1267;61331;-75
2023/08/14 05:22:07;;;;;;;7.00;3.40;;;;;;;19.13;100.00;100233.08;105753;1267;73201;-74
2023/08/14 05:24:34;;;;;;;10.00;3.00;;;;;;;19.23;100.00;100235.89;105069;1271;69629;-75
2023/08/14 05:27:00;;;;;;;10.80;3.40;;;;;;;19.34;100.00;100236.28;105542;1267;72167;-74
2023/08/14 05:29:27;;;;;;;9.80;3.50;;;;;;;19.46;100.00;100232.87;105141;1269;61398;-75
2023/08/14 05:31:54;;;;;;;19.60;3.80;;;;;;;19.59;100.00;100231.41;104976;1273;61298;-74
2023/08/14 05:34:20;;;;;;;7.90;3.30;;;;;;;19.73;100.00;100232.36;106154;1269;74489;-76
2023/08/14 05:36:48;;;;;;;9.70;3.20;;;;;;;19.87;100.00;100232.42;105747;1267;71110;-75
2023/08/14 05:39:14;;;;;;;9.90;3.40;;;;;;;19.97;100.00;100226.58;105193;1267;71302;-75
2023/08/14 05:41:41;;;;;;;7.10;2.90;;;;;;;20.10;100.00;100228.13;105760;1267;61708;-75
2023/08/14 05:44:07;;;;;;;5.00;3.10;;;;;;;20.22;100.00;100227.39;105528;1267;61270;-75
2023/08/14 05:46:35;;;;;;;7.50;3.00;;;;;;;20.34;100.00;100227.16;105078;1267;74788;-74
2023/08/14 05:49:01;;;;;;;13.10;3.30;;;;;;;20.47;100.00;100229.39;105096;1267;71202;-74
2023/08/14 05:51:28;;;;;;;13.10;3.60;;;;;;;20.58;100.00;100227.00;105034;1267;72748;-74
2023/08/14 05:53:55;;;;;;;10.50;3.20;;;;;;;20.70;100.00;100224.29;104975;1267;61385;-75
2023/08/14 05:56:22;;;;;;;5.60;3.00;;;;;;;20.82;100.00;100225.30;105322;1267;61399;-74
2023/08/14 05:58:48;;;;;;;12.80;3.50;;;;;;;20.92;100.00;100222.14;105096;1267;75059;-74
2023/08/14 06:01:15;;;;;;;11.70;3.00;;;;;;;21.02;100.00;100222.54;105041;1267;61488;-74
2023/08/14 06:03:42;;;;;;;7.20;3.30;;;;;;;21.15;100.00;100222.05;104981;1271;72752;-74
2023/08/14 06:06:11;;;;;;;11.10;3.30;;;;;;;21.28;100.00;100226.92;106435;1267;61362;-74
2023/08/14 06:08:38;;;;;;;16.00;3.10;;;;;;;21.41;100.00;100225.48;105316;1267;61312;-74
2023/08/14 06:11:05;;;;;;;12.90;3.10;;;;;;;21.55;100.00;100219.38;105252;1268;74695;-74
2023/08/14 06:13:32;;;;;;;8.30;3.00;;;;;;;21.69;100.00;100221.96;105667;1267;71151;-74
2023/08/14 06:15:59;;;;;;;5.40;2.90;;;;;;;21.82;100.00;100223.88;105315;1268;72503;-74
2023/08/14 06:18:25;;;;;;;13.10;2.80;;;;;;;21.95;100.00;100223.55;105484;1271;61301;-75
2023/08/14 06:20:53;;;;;;;10.50;3.10;;;;;;;22.08;100.00;100226.55;106082;1267;61286;-74
2023/08/14 06:23:20;;;;;;;6.00;2.70;;;;;;;22.23;100.00;100227.27;105735;1271;74649;-74
2023/08/14 06:25:46;;;;;;;7.90;3.20;;;;;;;22.36;100.00;100226.77;104956;1266;71707;-74
2023/08/14 06:28:13;;;;;;;6.50;2.80;;;;;;;22.49;100.00;100229.34;105439;1267;72789;-75
2023/08/14 06:30:40;;;;;;;10.70;2.90;;;;;;;22.61;100.00;100220.98;105327;1267;61427;-74
2023/08/14 06:33:07;;;;;;;21.60;2.70;;;;;;;22.71;100.00;100218.25;105755;1267;61374;-74
2023/08/14 06:35:34;;;;;;;5.40;2.50;;;;;;;22.81;100.00;100222.34;105001;1271;73512;-74
2023/08/14 06:38:02;;;;;;;15.30;2.30;;;;;;;22.91;100.00;100223.79;105422;1267;70227;-73
2023/08/14 06:40:29;;;;;;;5.80;2.40;;;;;;;23.02;100.00;100220.80;104996;1271;72499;-74
2023/08/14 06:42:56;;;;;;;10.80;3.40;;;;;;;23.13;100.00;100219.96;104996;1271;61404;-75
2023/08/14 06:45:23;;;;;;;5.30;2.30;;;;;;;23.22;100.00;100223.80;105054;1267;61820;-74
2023/08/14 06:47:49;;;;;;;4.90;2.40;;;;;;;23.31;100.00;100224.00;105014;1270;73377;-74
2023/08/14 06:50:16;;;;;;;4.60;2.40;;;;;;;23.41;100.00;100225.57;105416;1267;68811;-75
2023/08/14 06:52:43;;;;;;;5.60;2.20;;;;;;;23.50;100.00;100220.21;104948;1269;70202;-74
2023/08/14 06:55:09;;;;;;;4.40;1.80;;;;;;;23.59;100.00;100225.78;105024;1267;61289;-75
2023/08/14 06:57:36;;;;;;;3.70;2.20;;;;;;;23.69;100.00;100221.95;106020;1266;61295;-74
2023/08/14 07:00:07;;;;;;;2.90;1.80;;;;;;;23.82;100.00;100228.16;105359;1268;74631;-74
2023/08/14 07:02:34;;;;;;;3.60;1.70;;;;;;;23.93;100.00;100227.30;105566;1267;71011;-73
2023/08/14 07:05:01;;;;;;;8.00;2.10;;;;;;;24.01;100.00;100227.19;106120;1267;72514;-75
2023/08/14 07:07:28;;;;;;;3.30;2.10;;;;;;;24.09;100.00;100224.73;105010;1267;61376;-74
2023/08/14 07:09:56;;;;;;;7.30;1.80;;;;;;;24.18;100.00;100223.36;105071;1268;61469;-74
2023/08/14 07:12:23;;;;;;;2.70;1.50;;;;;;;24.26;100.00;100222.14;105549;1269;74490;-74
2023/08/14 07:14:49;;;;;;;8.90;1.80;;;;;;;24.31;100.00;100220.81;105051;1267;71008;-75
2023/08/14 07:17:18;;;;;;;2.80;1.60;;;;;;;24.37;100.00;100221.09;105085;1267;72097;-75
2023/08/14 07:19:45;;;;;;;4.80;1.90;;;;;;;24.43;100.00;100227.34;104972;1271;61389;-75
2023/08/14 07:22:12;;;;;;;2.60;1.50;;;;;;;24.47;100.00;100227.73;105068;1267;61392;-75
2023/08/14 07:24:38;;;;;;;5.60;1.50;;;;;;;24.53;100.00;100231.08;104991;1267;74893;-75
2023/08/14 07:27:05;;;;;;;5.70;1.60;;;;;;;24.63;100.00;100232.45;105003;1267;69564;-74
2023/08/14 07:29:32;;;;;;;8.20;1.90;;;;;;;24.71;100.00;100229.79;104996;1267;72557;-74
2023/08/14 07:32:03;;;;;;;3.90;1.70;;;;;;;24.79;100.00;100233.82;105390;1268;61363;-74
2023/08/14 07:34:30;;;;;;;3.20;1.70;;;;;;;24.84;100.00;100231.55;105564;1267;61409;-75
2023/08/14 07:36:57;;;;;;;4.40;1.80;;;;;;;24.92;100.00;100228.44;105714;1268;74487;-75
2023/08/14 07:39:24;;;;;;;2.10;1.50;;;;;;;25.02;100.00;100229.58;105706;1267;61358;-75
2023/08/14 07:41:50;;;;;;;5.40;2.10;;;;;;;25.16;100.00;100230.04;105398;1267;72745;-75
2023/08/14 07:44:17;;;;;;;5.20;2.70;;;;;;;25.28;100.00;100230.50;105013;1267;61324;-76
2023/08/14 07:46:44;;;;;;;1.90;1.70;;;;;;;25.39;100.00;100231.29;104989;1271;61301;-75
2023/08/14 07:49:16;;;;;;;5.20;1.80;;;;;;;25.49;100.00;100232.14;105068;1268;74556;-75
2023/08/14 07:51:43;;;;;;;2.40;1.80;;;;;;;25.56;100.00;100231.82;105732;1267;71107;-74
2023/08/14 07:54:09;;;;;;;8.10;1.90;;;;;;;25.64;100.00;100226.91;105014;1267;72738;-74
2023/08/14 07:56:36;;;;;;;4.10;1.80;;;;;;;25.67;100.00;100226.93;105357;1269;61261;-74
2023/08/14 07:59:05;;;;;;;3.30;1.60;;;;;;;25.72;100.00;100227.12;105424;1267;61417;-74
2023/08/14 08:01:32;;;;;;;4.10;1.40;;;;;;;25.76;100.00;100225.47;104989;1267;74678;-75
2023/08/14 08:03:59;;;;;;;4.20;2.00;;;;;;;25.80;100.00;100226.89;105171;1271;69621;-74
2023/08/14 08:06:26;;;;;;;4.60;1.30;;;;;;;25.88;100.00;100223.52;105490;1272;72679;-75
2023/08/14 08:08:53;;;;;;;3.30;1.40;;;;;;;25.94;100.00;100223.88;105052;1267;61300;-75
2023/08/14 08:11:21;;;;;;;5.00;1.60;;;;;;;25.99;100.00;100223.85;105724;1267;61290;-74
2023/08/14 08:13:48;;;;;;;4.60;1.30;;;;;;;26.05;100.00;100224.79;105340;1271;74943;-74
2023/08/14 08:16:14;;;;;;;5.80;1.70;;;;;;;26.13;100.00;100224.20;105391;1269;61284;-75
2023/08/14 08:18:41;;;;;;;4.60;1.50;;;;;;;26.24;100.00;100219.32;105326;1267;72493;-75
2023/08/14 08:21:08;;;;;;;2.10;1.50;;;;;;;26.37;100.00;100219.45;105025;1268;61356;-75
2023/08/14 08:23:35;;;;;;;5.50;1.30;;;;;;;26.45;100.00;100221.59;105020;1267;61429;-73
2023/08/14 08:26:02;;;;;;;8.00;1.60;;;;;;;26.46;100.00;100218.41;105415;1271;74404;-76
2023/08/14 08:28:29;;;;;;;6.20;1.40;;;;;;;26.47;100.00;100219.06;105010;1270;71119;-74
2023/08/14 08:30:56;;;;;;;4.10;1.50;;;;;;;26.52;100.00;100215.86;105034;1269;72570;-74
2023/08/14 08:33:22;;;;;;;3.90;1.50;;;;;;;26.61;100.00;100217.79;106106;1268;61311;-75
2023/08/14 08:35:54;;;;;;;4.10;1.60;;;;;;;26.67;100.00;100219.02;105161;1269;61754;-74
2023/08/14 08:38:21;;;;;;;3.80;1.30;;;;;;;26.72;100.00;100215.45;105829;1267;74640;-74
2023/08/14 08:40:49;;;;;;;4.50;1.60;;;;;;;26.75;100.00;100218.17;105059;1271;71046;-74
2023/08/14 08:43:16;;;;;;;2.20;1.40;;;;;;;26.76;100.00;100222.19;105030;1267;72713;-74
2023/08/14 08:45:50;;;;;;;5.60;1.40;;;;;;;26.79;100.00;100220.32;105001;1267;61402;-74
2023/08/14 08:48:20;;;;;;;10.60;1.70;;;;;;;26.85;100.00;100221.02;105884;1267;61287;-75
2023/08/14 08:50:52;;;;;;;1.80;1.20;;;;;;;26.93;100.00;100220.43;105337;1267;74374;-75
2023/08/14 08:53:20;;;;;;;6.30;1.30;;;;;;;27.04;100.00;100217.69;106060;1267;71018;-74
2023/08/14 08:55:47;;;;;;;6.80;1.30;;;;;;;27.14;100.00;100222.03;105293;1269;72676;-73
2023/08/14 08:58:15;;;;;;;2.70;1.40;;;;;;;27.26;100.00;100223.36;104940;1269;61321;-73
2023/08/14 09:00:42;;;;;;;3.20;1.50;;;;;;;27.35;100.00;100226.17;105362;1269;61204;-74
2023/08/14 09:03:13;;;;;;;4.60;1.50;;;;;;;27.40;100.00;100221.89;104975;1267;73276;-73
2023/08/14 09:05:41;;;;;;;1.30;1.20;;;;;;;27.45;100.00;100218.39;106062;1268;71542;-74
2023/08/14 09:08:08;;;;;;;2.00;1.10;;;;;;;27.53;100.00;100218.88;105282;1267;71261;-74
2023/08/14 09:10:35;;;;;;;2.60;1.50;;;;;;;27.62;100.00;100216.75;105320;1268;61286;-74
2023/08/14 09:13:02;;;;;;;2.30;1.40;;;;;;;27.64;100.00;100212.39;104968;1267;61270;-74
2023/08/14 09:15:39;;;;;;;4.10;1.50;;;;;;;27.66;100.00;100201.96;104945;1271;73511;-75
2023/08/14 09:18:06;;;;;;;4.90;1.30;;;;;;;27.77;100.00;100210.67;104976;1267;70050;-75
2023/08/14 09:20:33;;;;;;;4.70;1.60;;;;;;;27.87;100.00;100212.22;104864;1267;72810;-75
2023/08/14 09:23:00;;;;;;;6.70;1.60;;;;;;;27.93;100.00;100209.15;105537;1267;61416;-75
2023/08/14 09:25:27;;;;;;;3.50;1.40;;;;;;;28.02;100.00;100206.85;106236;1268;61148;-75
2023/08/14 09:27:55;;;;;;;2.30;1.60;;;;;;;28.14;100.00;100208.42;105005;1269;65877;-75
2023/08/14 09:30:24;;;;;;;2.00;1.30;;;;;;;28.20;100.00;100202.95;105132;1267;62319;-74
2023/08/14 09:32:51;;;;;;;2.80;1.40;;;;;;;28.26;100.00;100205.11;104967;1271;72526;-74
2023/08/14 09:35:18;;;;;;;3.00;1.30;;;;;;;28.35;100.00;100202.77;105136;1269;61205;-73
2023/08/14 09:37:47;;;;;;;1.80;1.20;;;;;;;28.47;100.00;100199.20;105905;1268;61292;-73
2023/08/14 09:40:15;;;;;;;7.00;1.70;;;;;;;28.58;100.00;100197.99;105103;1271;65881;-74
2023/08/14 09:42:49;;;;;;;7.80;1.30;;;;;;;28.66;100.00;100200.41;105702;1267;62627;-74
2023/08/14 09:45:17;;;;;;;8.90;1.20;;;;;;;28.74;100.00;100197.64;105332;1267;62486;-74
2023/08/14 09:47:46;;;;;;;1.90;1.10;;;;;;;28.80;100.00;100198.29;105042;1267;61231;-74
2023/08/14 09:50:19;;;;;;;2.60;1.10;;;;;;;28.85;98.83;100200.27;104982;1268;61389;-74
2023/08/14 09:52:47;;;;;;;3.90;1.10;;;;;;;28.83;99.95;100198.15;105853;1268;66682;-74
2023/08/14 09:55:14;;;;;;;1.90;1.40;;;;;;;28.83;100.00;100200.49;104989;1267;62588;-74
2023/08/14 09:57:41;;;;;;;1.50;1.00;;;;;;;28.87;100.00;100194.69;104965;1269;65757;-74
2023/08/14 10:00:08;;;;;;;2.00;1.20;;;;;;;28.95;100.00;100192.80;105729;1267;61375;-75
2023/08/14 10:02:35;;;;;;;9.70;1.10;;;;;;;29.06;99.77;100195.33;105417;1268;61366;-75
2023/08/14 10:05:03;;;;;;;2.10;1.20;;;;;;;29.12;96.80;100192.85;105609;1271;65927;-74
2023/08/14 10:07:30;;;;;;;5.30;1.00;;;;;;;29.14;87.59;100190.15;105820;1271;61381;-74
2023/08/14 10:09:57;;;;;;;3.90;1.20;;;;;;;29.09;86.59;100192.77;105830;1268;64095;-76
2023/08/14 10:12:28;;;;;;;3.10;1.20;;;;;;;29.08;90.56;100191.50;105660;1267;61317;-75
2023/08/14 10:15:11;;;;;;;1.40;1.20;;;;;;;29.11;98.85;100192.98;106509;1267;60283;-74
2023/08/14 10:18:01;;;;;;;3.20;1.30;;;;;;;29.18;97.60;100189.80;105476;1267;65886;-75
2023/08/14 10:20:28;;;;;;;2.60;1.20;;;;;;;29.23;93.39;100193.24;105234;1267;62818;-75
2023/08/14 10:22:55;;;;;;;3.90;1.50;;;;;;;29.31;96.95;100192.75;105117;1268;64563;-75
2023/08/14 10:25:22;;;;;;;3.30;1.40;;;;;;;29.38;96.44;100194.80;104912;1268;61262;-75
2023/08/14 10:27:50;;;;;;;7.80;1.30;;;;;;;29.36;94.59;100196.41;104877;1269;61240;-74
2023/08/14 10:30:19;;;;;;;3.10;1.20;;;;;;;29.32;95.01;100193.65;105181;1271;66113;-74
2023/08/14 10:32:46;;;;;;;4.60;1.40;;;;;;;29.36;98.50;100195.70;105730;1267;62499;-74
2023/08/14 10:35:13;;;;;;;3.80;1.10;;;;;;;29.46;98.09;100197.70;105953;1267;62619;-74
2023/08/14 10:37:47;;;;;;;3.30;1.40;;;;;;;29.58;97.85;100189.95;105323;1271;61247;-74
2023/08/14 10:40:31;;;;;;;5.20;1.20;;;;;;;29.74;92.10;100189.05;104980;1269;61207;-73
2023/08/14 10:42:58;;;;;;;3.60;1.30;;;;;;;29.84;83.54;100183.33;104971;1267;66186;-75
2023/08/14 10:45:25;;;;;;;4.90;1.30;;;;;;;29.88;79.26;100182.14;105412;1267;62427;-74
2023/08/14 10:47:53;;;;;;;6.00;1.20;;;;;;;29.81;74.47;100181.08;105371;1267;64005;-75
2023/08/14 10:50:22;;;;;;;4.50;1.30;;;;;;;29.72;78.43;100183.46;105227;1271;61367;-74
2023/08/14 10:52:53;;;;;;;4.10;1.30;;;;;;;29.76;84.28;100181.15;104966;1269;61215;-75
2023/08/14 10:55:37;;;;;;;2.20;1.20;;;;;;;29.88;82.23;100178.75;105588;1273;66150;-75
2023/08/14 10:58:35;;;;;;;4.90;0.90;;;;;;;30.00;85.44;100175.63;105457;1271;61384;-75
2023/08/14 11:01:04;;;;;;;1.40;1.10;;;;;;;30.18;89.01;100168.90;104992;1267;64010;-75
2023/08/14 11:03:53;;;;;;;4.60;1.20;;;;;;;30.36;83.54;100170.65;105045;1267;61397;-76
2023/08/14 11:06:27;;;;;;;5.80;1.50;;;;;;;30.34;75.80;100173.55;105017;1271;61260;-75
2023/08/14 11:09:11;;;;;;;8.30;1.60;;;;;;;30.17;79.44;100170.64;104813;1273;65928;-75
2023/08/14 11:11:38;;;;;;;;;;;;;;;30.10;78.23;100165.99;104810;1273;61035;-75
2023/08/14 11:14:05;;;;;;;1.60;1.00;;;;;;;30.12;83.01;100165.93;106019;1267;306841;-75
2023/08/14 11:16:32;;;;;;;2.20;1.20;;;;;;;30.18;86.67;100163.10;105019;1267;61382;-76
2023/08/14 11:18:58;;;;;;;9.40;1.40;;;;;;;30.30;86.60;100162.57;106404;1267;61961;-75
2023/08/14 11:21:26;;;;;;;5.00;1.30;;;;;;;30.43;84.33;100158.83;105005;1271;66586;-75
2023/08/14 11:23:58;;;;;;;2.60;1.50;;;;;;;30.52;78.03;100157.45;104955;1267;61269;-75
2023/08/14 11:26:29;;;;;;;4.60;1.60;;;;;;;30.59;79.18;100153.08;104944;1269;63924;-74
2023/08/14 11:28:56;;;;;;;1.80;1.20;;;;;;;30.70;82.74;100151.30;106100;1267;61211;-75
2023/08/14 11:31:23;;;;;;;3.20;1.90;;;;;;;30.82;76.42;100147.90;105738;1269;61373;-74
2023/08/14 11:34:01;;;;;;;4.40;1.40;;;;;;;30.87;74.23;100144.91;104880;1270;66009;-75
2023/08/14 11:36:28;;;;;;;3.50;1.30;;;;;;;30.97;79.18;100143.65;105437;1269;62758;-74
2023/08/14 11:39:01;;;;;;;2.40;1.20;;;;;;;31.12;73.11;100143.44;105296;1269;63871;-75
2023/08/14 11:41:28;;;;;;;9.50;1.50;;;;;;;31.19;64.28;100135.99;105062;1269;61316;-75
2023/08/14 11:43:57;;;;;;;5.00;1.50;;;;;;;31.20;68.35;100138.46;104952;1271;61276;-76
2023/08/14 11:46:24;;;;;;;2.80;1.40;;;;;;;31.20;67.92;100139.93;104974;1271;66123;-74
2023/08/14 11:48:52;;;;;;;3.10;1.40;;;;;;;31.16;69.47;100139.81;105429;1271;62621;-74
2023/08/14 11:51:19;;;;;;;4.20;1.30;;;;;;;31.15;70.85;100139.27;105657;1269;62464;-73
2023/08/14 11:53:46;;;;;;;1.70;1.40;;;;;;;31.12;70.02;100137.67;105346;1269;61235;-75
2023/08/14 11:56:13;;;;;;;2.90;1.20;;;;;;;31.11;69.69;100139.27;105306;1271;61179;-75
2023/08/14 11:58:40;;;;;;;1.30;1.20;;;;;;;31.16;68.35;100138.55;105007;1271;66093;-75
2023/08/14 12:01:09;;;;;;;3.40;1.30;;;;;;;31.26;72.74;100134.32;104957;1269;62471;-74
2023/08/14 12:03:35;;;;;;;1.40;1.10;;;;;;;31.42;69.56;100131.39;105057;1268;62646;-75
2023/08/14 12:06:05;;;;;;;4.60;1.40;;;;;;;31.52;65.74;100131.39;105435;1268;61607;-75
2023/08/14 12:08:32;;;;;;;7.00;1.60;;;;;;;31.56;63.40;100132.78;105641;1267;61287;-75
2023/08/14 12:10:59;;;;;;;4.20;1.50;;;;;;;31.55;68.04;100133.13;105353;1271;65932;-74
2023/08/14 12:13:25;;;;;;;2.60;1.30;;;;;;;31.58;70.98;100126.18;104876;1269;62370;-74
2023/08/14 12:15:52;;;;;;;2.90;1.50;;;;;;;31.69;67.86;100128.20;105282;1268;62883;-75
2023/08/14 12:18:21;;;;;;;1.90;1.50;;;;;;;31.73;72.02;100130.64;104896;1269;61395;-74
2023/08/14 12:20:53;;;;;;;3.70;1.40;;;;;;;31.83;71.68;100132.78;105252;1269;61262;-75
2023/08/14 12:23:23;;;;;;;5.80;1.40;;;;;;;31.98;69.94;100128.35;105610;1269;66586;-74
2023/08/14 12:25:51;;;;;;;4.10;1.60;;;;;;;32.09;65.09;100129.42;105065;1267;62322;-75